sensor_id;sensor_type;location;lat;lon;timestamp;pressure;altitude;pressure_sealevel;temperature;humidity
22283;BME280;11310;51.528;21.204;2023-04-02T00:02:58;98911.44;;;7.91;100.00
22283;BME280;11310;51.528;21.204;2023-04-02T00:05:36;98916.88;;;7.86;100.00
22283;BME280;11310;51.528;21.204;2023-04-02T00:08:22;98920.34;;;7.87;100.00
22283;BME280;11310;51.528;21.204;2023-04-02T00:10:54;98921.28;;;7.86;100.00
22283;BME280;11310;51.528;21.204;2023-04-02T00:13:29;98924.13;;;7.81;100.00
22283;BME280;11310;51.528;21.204;2023-04-02T00:16:00;98927.59;;;7.82;100.00
22283;BME280;11310;51.528;21.204;2023-04-02T00:18:31;98933.66;;;7.82;100.00
22283;BME280;11310;51.528;21.204;2023-04-02T00:21:10;98925.91;;;7.81;100.00
22283;BME280;11310;51.528;21.204;2023-04-02T00:23:41;98933.75;;;7.81;100.00
22283;BME280;11310;51.528;21.204;2023-04-02T00:26:22;98928.50;;;7.81;100.00
22283;BME280;11310;51.528;21.204;2023-04-02T00:28:57;98938.97;;;7.81;100.00
22283;BME280;11310;51.528;21.204;2023-04-02T00:31:26;98945.78;;;7.83;100.00
22283;BME280;11310;51.528;21.204;2023-04-02T00:33:54;98952.00;;;7.81;100.00
22283;BME280;11310;51.528;21.204;2023-04-02T00:36:28;98948.63;;;7.79;100.00
22283;BME280;11310;51.528;21.204;2023-04-02T00:39:02;98954.03;;;7.76;100.00
22283;BME280;11310;51.528;21.204;2023-04-02T00:41:32;98956.72;;;7.74;100.00
22283;BME280;11310;51.528;21.204;2023-04-02T00:44:02;98957.53;;;7.75;100.00
22283;BME280;11310;51.528;21.204;2023-04-02T00:46:38;98953.16;;;7.75;100.00
22283;BME280;11310;51.528;21.204;2023-04-02T00:49:21;98955.69;;;7.77;100.00
22283;BME280;11310;51.528;21.204;2023-04-02T00:51:57;98954.78;;;7.78;100.00
22283;BME280;11310;51.528;21.204;2023-04-02T00:54:29;98960.25;;;7.73;100.00
22283;BME280;11310;51.528;21.204;2023-04-02T00:56:58;98960.31;;;7.72;100.00
22283;BME280;11310;51.528;21.204;2023-04-02T00:59:32;98961.25;;;7.71;100.00
22283;BME280;11310;51.528;21.204;2023-04-02T01:02:21;98962.06;;;7.71;100.00
22283;BME280;11310;51.528;21.204;2023-04-02T01:04:54;98961.25;;;7.71;100.00
22283;BME280;11310;51.528;21.204;2023-04-02T01:07:46;98967.28;;;7.71;100.00
22283;BME280;11310;51.528;21.204;2023-04-02T01:10:46;98962.31;;;7.67;100.00
22283;BME280;11310;51.528;21.204;2023-04-02T01:13:24;98963.06;;;7.69;100.00
22283;BME280;11310;51.528;21.204;2023-04-02T01:16:00;98965.69;;;7.69;100.00
22283;BME280;11310;51.528;21.204;2023-04-02T01:18:44;98969.22;;;7.68;100.00
22283;BME280;11310;51.528;21.204;2023-04-02T01:21:22;98971.06;;;7.66;100.00
22283;BME280;11310;51.528;21.204;2023-04-02T01:24:02;98973.84;;;7.63;100.00
22283;BME280;11310;51.528;21.204;2023-04-02T01:26:52;98976.53;;;7.61;100.00
22283;BME280;11310;51.528;21.204;2023-04-02T01:29:28;98981.00;;;7.59;100.00
22283;BME280;11310;51.528;21.204;2023-04-02T01:32:00;98974.31;;;7.54;100.00
22283;BME280;11310;51.528;21.204;2023-04-02T01:34:31;98978.59;;;7.55;100.00
22283;BME280;11310;51.528;21.204;2023-04-02T01:37:09;98977.84;;;7.53;100.00
22283;BME280;11310;51.528;21.204;2023-04-02T01:39:55;98976.06;;;7.53;100.00
22283;BME280;11310;51.528;21.204;2023-04-02T01:42:31;98981.94;;;7.57;100.00
22283;BME280;11310;51.528;21.204;2023-04-02T01:45:07;98980.28;;;7.56;100.00
22283;BME280;11310;51.528;21.204;2023-04-02T01:47:36;98981.88;;;7.58;100.00
22283;BME280;11310;51.528;21.204;2023-04-02T01:50:20;98980.88;;;7.61;100.00
22283;BME280;11310;51.528;21.204;2023-04-02T01:52:51;98987.81;;;7.62;100.00
22283;BME280;11310;51.528;21.204;2023-04-02T01:55:31;98991.31;;;7.61;100.00
22283;BME280;11310;51.528;21.204;2023-04-02T01:58:01;98991.31;;;7.61;100.00
22283;BME280;11310;51.528;21.204;2023-04-02T02:00:33;99002.63;;;7.61;100.00
22283;BME280;11310;51.528;21.204;2023-04-02T02:03:04;99002.69;;;7.60;100.00
22283;BME280;11310;51.528;21.204;2023-04-02T02:05:36;98996.72;;;7.58;100.00
22283;BME280;11310;51.528;21.204;2023-04-02T02:08:07;98996.84;;;7.55;100.00
22283;BME280;11310;51.528;21.204;2023-04-02T02:10:38;98998.53;;;7.56;100.00
22283;BME280;11310;51.528;21.204;2023-04-02T02:13:12;99000.41;;;7.54;100.00
22283;BME280;11310;51.528;21.204;2023-04-02T02:15:43;99005.75;;;7.51;100.00
22283;BME280;11310;51.528;21.204;2023-04-02T02:18:13;99005.94;;;7.48;100.00
22283;BME280;11310;51.528;21.204;2023-04-02T02:20:44;99003.41;;;7.46;100.00
22283;BME280;11310;51.528;21.204;2023-04-02T02:23:12;99002.53;;;7.46;100.00
22283;BME280;11310;51.528;21.204;2023-04-02T02:25:43;99007.75;;;7.46;100.00
22283;BME280;11310;51.528;21.204;2023-04-02T02:28:15;99006.91;;;7.45;100.00
22283;BME280;11310;51.528;21.204;2023-04-02T02:30:47;99004.53;;;7.41;100.00
22283;BME280;11310;51.528;21.204;2023-04-02T02:33:21;99011.44;;;7.42;100.00
22283;BME280;11310;51.528;21.204;2023-04-02T02:35:57;99014.03;;;7.42;100.00
22283;BME280;11310;51.528;21.204;2023-04-02T02:38:46;99018.44;;;7.41;100.00
22283;BME280;11310;51.528;21.204;2023-04-02T02:41:29;99025.53;;;7.38;100.00
22283;BME280;11310;51.528;21.204;2023-04-02T02:44:04;99036.06;;;7.36;100.00
22283;BME280;11310;51.528;21.204;2023-04-02T02:46:43;99037.13;;;7.32;100.00
22283;BME280;11310;51.528;21.204;2023-04-02T02:49:15;99032.91;;;7.30;100.00
22283;BME280;11310;51.528;21.204;2023-04-02T02:51:47;99044.34;;;7.27;100.00
22283;BME280;11310;51.528;21.204;2023-04-02T02:54:26;99046.31;;;7.22;100.00
22283;BME280;11310;51.528;21.204;2023-04-02T02:56:58;99052.44;;;7.21;100.00
22283;BME280;11310;51.528;21.204;2023-04-02T02:59:29;99061.25;;;7.19;100.00
22283;BME280;11310;51.528;21.204;2023-04-02T03:02:02;99051.53;;;7.22;100.00
22283;BME280;11310;51.528;21.204;2023-04-02T03:04:34;99060.97;;;7.25;100.00
22283;BME280;11310;51.528;21.204;2023-04-02T03:07:09;99051.31;;;7.27;100.00
22283;BME280;11310;51.528;21.204;2023-04-02T03:09:44;99055.59;;;7.28;100.00
22283;BME280;11310;51.528;21.204;2023-04-02T03:12:30;99056.59;;;7.25;100.00
22283;BME280;11310;51.528;21.204;2023-04-02T03:15:05;99057.59;;;7.23;100.00
22283;BME280;11310;51.528;21.204;2023-04-02T03:17:41;99060.88;;;7.26;100.00
22283;BME280;11310;51.528;21.204;2023-04-02T03:20:14;99070.50;;;7.26;100.00
22283;BME280;11310;51.528;21.204;2023-04-02T03:22:50;99067.91;;;7.26;100.00
22283;BME280;11310;51.528;21.204;2023-04-02T03:25:26;99075.72;;;7.26;100.00
22283;BME280;11310;51.528;21.204;2023-04-02T03:28:02;99066.47;;;7.19;100.00
22283;BME280;11310;51.528;21.204;2023-04-02T03:30:37;99075.38;;;7.15;100.00
22283;BME280;11310;51.528;21.204;2023-04-02T03:33:14;99085.22;;;7.08;100.00
22283;BME280;11310;51.528;21.204;2023-04-02T03:35:48;99086.22;;;7.06;100.00
22283;BME280;11310;51.528;21.204;2023-04-02T03:38:24;99088.94;;;7.04;100.00
22283;BME280;11310;51.528;21.204;2023-04-02T03:41:00;99098.63;;;7.01;100.00
22283;BME280;11310;51.528;21.204;2023-04-02T03:43:36;99093.41;;;7.01;100.00
22283;BME280;11310;51.528;21.204;2023-04-02T03:46:17;99096.19;;;6.98;100.00
22283;BME280;11310;51.528;21.204;2023-04-02T03:48:53;99093.59;;;6.98;100.00
22283;BME280;11310;51.528;21.204;2023-04-02T03:51:26;99103.09;;;6.99;100.00
22283;BME280;11310;51.528;21.204;2023-04-02T03:54:00;99104.72;;;7.01;100.00
22283;BME280;11310;51.528;21.204;2023-04-02T03:56:31;99111.53;;;7.04;100.00
22283;BME280;11310;51.528;21.204;2023-04-02T03:59:15;99108.94;;;7.04;100.00
22283;BME280;11310;51.528;21.204;2023-04-02T04:01:51;99109.84;;;7.03;100.00
22283;BME280;11310;51.528;21.204;2023-04-02T04:04:26;99122.97;;;7.01;100.00
22283;BME280;11310;51.528;21.204;2023-04-02T04:06:56;99123.03;;;7.00;100.00
22283;BME280;11310;51.528;21.204;2023-04-02T04:09:28;99128.38;;;6.97;100.00
22283;BME280;11310;51.528;21.204;2023-04-02T04:12:01;99126.69;;;6.96;100.00
22283;BME280;11310;51.528;21.204;2023-04-02T04:14:39;99126.63;;;6.97;100.00
22283;BME280;11310;51.528;21.204;2023-04-02T04:17:16;99140.50;;;6.98;100.00
22283;BME280;11310;51.528;21.204;2023-04-02T04:19:59;99147.47;;;6.97;100.00
22283;BME280;11310;51.528;21.204;2023-04-02T04:22:34;99144.88;;;6.97;100.00
22283;BME280;11310;51.528;21.204;2023-04-02T04:25:22;99150.06;;;6.97;100.00
22283;BME280;11310;51.528;21.204;2023-04-02T04:28:05;99158.81;;;6.96;100.00
22283;BME280;11310;51.528;21.204;2023-04-02T04:30:46;99160.44;;;6.99;100.00
22283;BME280;11310;51.528;21.204;2023-04-02T04:33:23;99149.22;;;6.97;100.00
22283;BME280;11310;51.528;21.204;2023-04-02T04:36:01;99162.19;;;6.98;100.00
22283;BME280;11310;51.528;21.204;2023-04-02T04:38:36;99164.03;;;6.96;100.00
22283;BME280;11310;51.528;21.204;2023-04-02T04:41:14;99156.16;;;6.98;100.00
22283;BME280;11310;51.528;21.204;2023-04-02T04:43:50;99166.41;;;7.01;100.00
22283;BME280;11310;51.528;21.204;2023-04-02T04:46:24;99165.59;;;7.00;100.00
22283;BME280;11310;51.528;21.204;2023-04-02T04:48:59;99166.41;;;7.01;100.00
22283;BME280;11310;51.528;21.204;2023-04-02T04:51:37;99171.63;;;7.01;100.00
22283;BME280;11310;51.528;21.204;2023-04-02T04:54:11;99174.13;;;7.04;100.00
22283;BME280;11310;51.528;21.204;2023-04-02T04:56:45;99179.34;;;7.04;100.00
22283;BME280;11310;51.528;21.204;2023-04-02T04:59:19;99182.78;;;7.04;100.00
22283;BME280;11310;51.528;21.204;2023-04-02T05:01:56;99187.91;;;7.06;100.00
22283;BME280;11310;51.528;21.204;2023-04-02T05:04:32;99188.84;;;7.05;100.00
22283;BME280;11310;51.528;21.204;2023-04-02T05:07:08;99192.44;;;7.02;100.00
22283;BME280;11310;51.528;21.204;2023-04-02T05:09:40;99196.72;;;7.03;100.00
22283;BME280;11310;51.528;21.204;2023-04-02T05:12:17;99196.72;;;7.03;100.00
22283;BME280;11310;51.528;21.204;2023-04-02T05:14:54;99204.41;;;7.06;100.00
22283;BME280;11310;51.528;21.204;2023-04-02T05:17:27;99200.94;;;7.06;100.00
22283;BME280;11310;51.528;21.204;2023-04-02T05:20:02;99215.72;;;7.07;100.00
22283;BME280;11310;51.528;21.204;2023-04-02T05:22:45;99207.88;;;7.07;100.00
22283;BME280;11310;51.528;21.204;2023-04-02T05:25:19;99213.09;;;7.07;100.00
22283;BME280;11310;51.528;21.204;2023-04-02T05:27:56;99219.84;;;7.11;100.00
22283;BME280;11310;51.528;21.204;2023-04-02T05:30:41;99218.94;;;7.12;100.00
22283;BME280;11310;51.528;21.204;2023-04-02T05:33:22;99226.91;;;7.09;100.00
22283;BME280;11310;51.528;21.204;2023-04-02T05:35:57;99241.91;;;7.04;100.00
22283;BME280;11310;51.528;21.204;2023-04-02T05:38:32;99243.88;;;6.99;100.00
22283;BME280;11310;51.528;21.204;2023-04-02T05:41:03;99249.16;;;6.97;100.00
22283;BME280;11310;51.528;21.204;2023-04-02T05:43:36;99245.84;;;6.94;100.00
22283;BME280;11310;51.528;21.204;2023-04-02T05:46:15;99249.34;;;6.93;100.00
22283;BME280;11310;51.528;21.204;2023-04-02T05:48:49;99245.19;;;6.89;100.00
22283;BME280;11310;51.528;21.204;2023-04-02T05:51:24;99244.22;;;6.91;100.00
22283;BME280;11310;51.528;21.204;2023-04-02T05:54:00;99258.88;;;6.94;100.00
22283;BME280;11310;51.528;21.204;2023-04-02T05:56:36;99251.00;;;6.95;100.00
22283;BME280;11310;51.528;21.204;2023-04-02T05:59:11;99257.94;;;6.95;100.00
22283;BME280;11310;51.528;21.204;2023-04-02T06:01:44;99257.16;;;6.93;100.00
22283;BME280;11310;51.528;21.204;2023-04-02T06:04:27;99256.13;;;6.97;100.00
22283;BME280;11310;51.528;21.204;2023-04-02T06:07:03;99267.06;;;7.05;100.00
22283;BME280;11310;51.528;21.204;2023-04-02T06:09:41;99266.78;;;7.11;100.00
22283;BME280;11310;51.528;21.204;2023-04-02T06:12:18;99271.75;;;7.17;100.00
22283;BME280;11310;51.528;21.204;2023-04-02T06:14:50;99275.69;;;7.25;100.00
22283;BME280;11310;51.528;21.204;2023-04-02T06:17:20;99274.59;;;7.31;100.00
22283;BME280;11310;51.528;21.204;2023-04-02T06:19:50;99278.69;;;7.36;100.00
22283;BME280;11310;51.528;21.204;2023-04-02T06:22:24;99281.31;;;7.36;100.00
22283;BME280;11310;51.528;21.204;2023-04-02T06:25:01;99290.81;;;7.37;100.00
22283;BME280;11310;51.528;21.204;2023-04-02T06:27:40;99291.78;;;7.35;100.00
22283;BME280;11310;51.528;21.204;2023-04-02T06:30:16;99286.78;;;7.30;100.00
22283;BME280;11310;51.528;21.204;2023-04-02T06:32:49;99293.97;;;7.25;100.00
22283;BME280;11310;51.528;21.204;2023-04-02T06:35:19;99289.84;;;7.20;100.00
22283;BME280;11310;51.528;21.204;2023-04-02T06:38:02;99295.63;;;7.08;100.00
22283;BME280;11310;51.528;21.204;2023-04-02T06:40:40;99302.16;;;6.98;100.00
22283;BME280;11310;51.528;21.204;2023-04-02T06:43:23;99305.00;;;6.92;100.00
22283;BME280;11310;51.528;21.204;2023-04-02T06:46:27;99304.34;;;6.87;100.00
22283;BME280;11310;51.528;21.204;2023-04-02T06:49:12;99313.97;;;6.86;100.00
22283;BME280;11310;51.528;21.204;2023-04-02T06:51:43;99314.00;;;6.85;100.00
22283;BME280;11310;51.528;21.204;2023-04-02T06:54:14;99318.47;;;6.81;100.00
22283;BME280;11310;51.528;21.204;2023-04-02T06:56:49;99323.03;;;6.76;100.00
22283;BME280;11310;51.528;21.204;2023-04-02T06:59:26;99318.75;;;6.75;100.00
22283;BME280;11310;51.528;21.204;2023-04-02T07:01:58;99331.84;;;6.74;100.00
22283;BME280;11310;51.528;21.204;2023-04-02T07:04:30;99332.66;;;6.76;100.00
22283;BME280;11310;51.528;21.204;2023-04-02T07:06:59;99332.50;;;6.79;100.00
22283;BME280;11310;51.528;21.204;2023-04-02T07:09:32;99334.88;;;6.85;100.00
22283;BME280;11310;51.528;21.204;2023-04-02T07:12:11;99338.25;;;6.87;100.00
22283;BME280;11310;51.528;21.204;2023-04-02T07:14:41;99334.00;;;6.84;100.00
22283;BME280;11310;51.528;21.204;2023-04-02T07:17:15;99344.31;;;6.87;100.00
22283;BME280;11310;51.528;21.204;2023-04-02T07:19:45;99344.25;;;6.89;100.00
22283;BME280;11310;51.528;21.204;2023-04-02T07:22:18;99348.59;;;6.88;100.00
22283;BME280;11310;51.528;21.204;2023-04-02T07:24:52;99350.06;;;6.95;100.00
22283;BME280;11310;51.528;21.204;2023-04-02T07:27:21;99357.88;;;6.95;100.00
22283;BME280;11310;51.528;21.204;2023-04-02T07:29:50;99350.78;;;6.99;100.00
22283;BME280;11310;51.528;21.204;2023-04-02T07:32:18;99356.00;;;6.99;100.00
22283;BME280;11310;51.528;21.204;2023-04-02T07:34:47;99356.91;;;6.98;100.00
22283;BME280;11310;51.528;21.204;2023-04-02T07:37:16;99356.22;;;6.93;100.00
22283;BME280;11310;51.528;21.204;2023-04-02T07:39:44;99365.88;;;6.91;100.00
22283;BME280;11310;51.528;21.204;2023-04-02T07:42:13;99370.31;;;6.89;100.00
22283;BME280;11310;51.528;21.204;2023-04-02T07:44:43;99379.84;;;6.90;100.00
22283;BME280;11310;51.528;21.204;2023-04-02T07:47:11;99389.59;;;6.85;100.00
22283;BME280;11310;51.528;21.204;2023-04-02T07:49:40;99389.66;;;6.83;100.00
22283;BME280;11310;51.528;21.204;2023-04-02T07:52:10;99398.47;;;6.81;100.00
22283;BME280;11310;51.528;21.204;2023-04-02T07:54:39;99403.66;;;6.81;100.00
22283;BME280;11310;51.528;21.204;2023-04-02T07:57:07;99402.81;;;6.80;100.00
22283;BME280;11310;51.528;21.204;2023-04-02T07:59:39;99405.34;;;6.82;100.00
22283;BME280;11310;51.528;21.204;2023-04-02T08:02:17;99412.22;;;6.84;100.00
22283;BME280;11310;51.528;21.204;2023-04-02T08:04:48;99420.50;;;6.94;100.00
22283;BME280;11310;51.528;21.204;2023-04-02T08:07:17;99421.94;;;7.01;100.00
22283;BME280;11310;51.528;21.204;2023-04-02T08:09:46;99425.34;;;7.03;100.00
22283;BME280;11310;51.528;21.204;2023-04-02T08:12:14;99426.13;;;7.05;100.00
22283;BME280;11310;51.528;21.204;2023-04-02T08:14:43;99425.16;;;7.07;100.00
22283;BME280;11310;51.528;21.204;2023-04-02T08:17:12;99429.66;;;7.04;100.00
22283;BME280;11310;51.528;21.204;2023-04-02T08:19:42;99432.25;;;7.04;100.00
22283;BME280;11310;51.528;21.204;2023-04-02T08:22:21;99434.97;;;7.01;100.00
22283;BME280;11310;51.528;21.204;2023-04-02T08:24:50;99435.03;;;6.99;100.00
22283;BME280;11310;51.528;21.204;2023-04-02T08:27:18;99434.38;;;6.94;100.00
22283;BME280;11310;51.528;21.204;2023-04-02T08:29:47;99441.47;;;6.91;100.00
22283;BME280;11310;51.528;21.204;2023-04-02T08:32:16;99435.56;;;6.87;100.00
22283;BME280;11310;51.528;21.204;2023-04-02T08:34:46;99444.34;;;6.85;100.00
22283;BME280;11310;51.528;21.204;2023-04-02T08:37:14;99448.28;;;6.73;100.00
22283;BME280;11310;51.528;21.204;2023-04-02T08:39:43;99448.50;;;6.67;100.00
22283;BME280;11310;51.528;21.204;2023-04-02T08:42:22;99470.41;;;6.63;100.00
22283;BME280;11310;51.528;21.204;2023-04-02T08:45:02;99465.47;;;6.56;100.00
22283;BME280;11310;51.528;21.204;2023-04-02T08:47:52;99476.81;;;6.55;100.00
22283;BME280;11310;51.528;21.204;2023-04-02T08:50:28;99477.72;;;6.54;100.00
22283;BME280;11310;51.528;21.204;2023-04-02T08:53:01;99491.31;;;6.62;100.00
22283;BME280;11310;51.528;21.204;2023-04-02T08:55:30;99480.53;;;6.71;100.00
22283;BME280;11310;51.528;21.204;2023-04-02T08:58:07;99488.00;;;6.80;100.00
22283;BME280;11310;51.528;21.204;2023-04-02T09:00:42;99493.88;;;6.85;100.00
22283;BME280;11310;51.528;21.204;2023-04-02T09:03:17;99494.53;;;6.90;100.00
22283;BME280;11310;51.528;21.204;2023-04-02T09:05:50;99490.09;;;6.92;100.00
22283;BME280;11310;51.528;21.204;2023-04-02T09:08:20;99497.25;;;6.87;100.00
22283;BME280;11310;51.528;21.204;2023-04-02T09:10:55;99498.13;;;6.87;100.00
22283;BME280;11310;51.528;21.204;2023-04-02T09:13:29;99497.31;;;6.85;100.00
22283;BME280;11310;51.528;21.204;2023-04-02T09:16:04;99501.69;;;6.85;100.00
22283;BME280;11310;51.528;21.204;2023-04-02T09:18:35;99500.59;;;6.90;100.00
22283;BME280;11310;51.528;21.204;2023-04-02T09:21:28;99512.78;;;6.90;100.00
22283;BME280;11310;51.528;21.204;2023-04-02T09:23:58;99513.16;;;6.81;100.00
22283;BME280;11310;51.528;21.204;2023-04-02T09:26:32;99511.16;;;6.66;100.00
22283;BME280;11310;51.528;21.204;2023-04-02T09:29:21;99514.22;;;6.54;100.00
22283;BME280;11310;51.528;21.204;2023-04-02T09:31:56;99515.28;;;6.48;100.00
22283;BME280;11310;51.528;21.204;2023-04-02T09:34:31;99517.94;;;6.47;100.00
22283;BME280;11310;51.528;21.204;2023-04-02T09:37:06;99517.94;;;6.47;100.00
22283;BME280;11310;51.528;21.204;2023-04-02T09:39:36;99529.31;;;6.44;100.00
22283;BME280;11310;51.528;21.204;2023-04-02T09:42:28;99521.69;;;6.40;100.00
22283;BME280;11310;51.528;21.204;2023-04-02T09:45:12;99525.06;;;6.42;100.00
22283;BME280;11310;51.528;21.204;2023-04-02T09:47:42;99526.66;;;6.46;100.00
22283;BME280;11310;51.528;21.204;2023-04-02T09:50:28;99537.44;;;6.37;100.00
22283;BME280;11310;51.528;21.204;2023-04-02T09:53:23;99539.59;;;6.26;100.00
22283;BME280;11310;51.528;21.204;2023-04-02T09:56:07;99543.88;;;6.27;100.00
22283;BME280;11310;51.528;21.204;2023-04-02T09:58:37;99548.50;;;6.19;100.00
22283;BME280;11310;51.528;21.204;2023-04-02T10:03:58;99554.03;;;6.10;100.00
22283;BME280;11310;51.528;21.204;2023-04-02T10:06:28;99557.56;;;6.09;100.00
22283;BME280;11310;51.528;21.204;2023-04-02T10:09:18;99558.25;;;6.14;100.00
22283;BME280;11310;51.528;21.204;2023-04-02T10:11:48;99564.19;;;6.17;100.00
22283;BME280;11310;51.528;21.204;2023-04-02T10:14:21;99567.56;;;6.21;100.00
22283;BME280;11310;51.528;21.204;2023-04-02T10:16:54;99570.72;;;6.29;100.00
22283;BME280;11310;51.528;21.204;2023-04-02T10:19:28;99574.53;;;6.43;100.00
22283;BME280;11310;51.528;21.204;2023-04-02T10:22:04;99576.84;;;6.74;100.00
22283;BME280;11310;51.528;21.204;2023-04-02T10:24:35;99580.09;;;7.02;100.00
22283;BME280;11310;51.528;21.204;2023-04-02T10:27:12;99581.69;;;7.27;100.00
22283;BME280;11310;51.528;21.204;2023-04-02T10:29:59;99580.34;;;7.39;100.00
22283;BME280;11310;51.528;21.204;2023-04-02T10:32:36;99586.25;;;7.44;100.00
22283;BME280;11310;51.528;21.204;2023-04-02T10:35:15;99581.78;;;7.46;100.00
22283;BME280;11310;51.528;21.204;2023-04-02T10:38:03;99600.88;;;7.48;100.00
22283;BME280;11310;51.528;21.204;2023-04-02T10:40:41;99597.16;;;7.32;100.00
22283;BME280;11310;51.528;21.204;2023-04-02T10:43:35;99599.81;;;7.09;100.00
22283;BME280;11310;51.528;21.204;2023-04-02T10:46:11;99598.41;;;7.00;100.00
22283;BME280;11310;51.528;21.204;2023-04-02T10:48:55;99603.13;;;6.91;100.00
22283;BME280;11310;51.528;21.204;2023-04-02T10:51:33;99602.22;;;6.92;100.00
22283;BME280;11310;51.528;21.204;2023-04-02T10:54:17;99603.03;;;6.94;100.00
22283;BME280;11310;51.528;21.204;2023-04-02T10:56:51;99609.13;;;6.93;100.00
22283;BME280;11310;51.528;21.204;2023-04-02T10:59:24;99604.19;;;6.85;100.00
22283;BME280;11310;51.528;21.204;2023-04-02T11:01:56;99619.97;;;6.82;100.00
22283;BME280;11310;51.528;21.204;2023-04-02T11:04:31;99622.72;;;6.78;100.00
22283;BME280;11310;51.528;21.204;2023-04-02T11:07:06;99628.47;;;6.87;100.00
22283;BME280;11310;51.528;21.204;2023-04-02T11:09:42;99629.03;;;6.95;100.00
22283;BME280;11310;51.528;21.204;2023-04-02T11:12:19;99632.94;;;7.07;100.00
22283;BME280;11310;51.528;21.204;2023-04-02T11:14:49;99631.22;;;7.06;100.00
22283;BME280;11310;51.528;21.204;2023-04-02T11:17:19;99648.75;;;7.02;100.00
22283;BME280;11310;51.528;21.204;2023-04-02T11:19:49;99640.97;;;7.01;100.00
22283;BME280;11310;51.528;21.204;2023-04-02T11:22:21;99655.50;;;7.08;100.00
22283;BME280;11310;51.528;21.204;2023-04-02T11:24:51;99649.94;;;7.17;100.00
22283;BME280;11310;51.528;21.204;2023-04-02T11:27:24;99649.00;;;7.18;100.00
22283;BME280;11310;51.528;21.204;2023-04-02T11:30:01;99663.50;;;7.25;100.00
22283;BME280;11310;51.528;21.204;2023-04-02T11:32:39;99676.63;;;7.23;100.00
22283;BME280;11310;51.528;21.204;2023-04-02T11:35:25;99675.19;;;7.15;100.00
22283;BME280;11310;51.528;21.204;2023-04-02T11:37:57;99680.56;;;7.12;100.00
22283;BME280;11310;51.528;21.204;2023-04-02T11:40:50;99673.03;;;7.04;100.00
22283;BME280;11310;51.528;21.204;2023-04-02T11:43:48;99680.44;;;6.92;100.00
22283;BME280;11310;51.528;21.204;2023-04-02T11:49:55;99705.19;;;6.56;100.00
22283;BME280;11310;51.528;21.204;2023-04-02T11:52:26;99702.03;;;6.48;100.00
22283;BME280;11310;51.528;21.204;2023-04-02T11:55:21;99698.75;;;6.43;100.00
22283;BME280;11310;51.528;21.204;2023-04-02T11:58:33;99704.91;;;6.40;100.00
22283;BME280;11310;51.528;21.204;2023-04-02T12:01:37;99707.59;;;6.37;100.00
22283;BME280;11310;51.528;21.204;2023-04-02T12:04:40;99706.38;;;6.47;100.00
22283;BME280;11310;51.528;21.204;2023-04-02T12:10:02;99729.41;;;6.35;100.00
22283;BME280;11310;51.528;21.204;2023-04-02T12:12:35;99719.88;;;6.34;100.00
22283;BME280;11310;51.528;21.204;2023-04-02T12:15:35;99723.28;;;6.36;100.00
22283;BME280;11310;51.528;21.204;2023-04-02T12:18:14;99729.41;;;6.35;100.00
22283;BME280;11310;51.528;21.204;2023-04-02T12:20:48;99730.41;;;6.31;100.00
22283;BME280;11310;51.528;21.204;2023-04-02T12:23:21;99730.50;;;6.28;100.00
22283;BME280;11310;51.528;21.204;2023-04-02T12:25:52;99734.97;;;6.24;100.00
22283;BME280;11310;51.528;21.204;2023-04-02T12:28:24;99728.97;;;6.22;100.00
22283;BME280;11310;51.528;21.204;2023-04-02T12:31:02;99732.41;;;6.23;100.00
22283;BME280;11310;51.528;21.204;2023-04-02T12:33:37;99735.91;;;6.22;100.00
22283;BME280;11310;51.528;21.204;2023-04-02T12:36:16;99739.31;;;6.24;100.00
22283;BME280;11310;51.528;21.204;2023-04-02T12:38:47;99742.94;;;6.20;100.00
22283;BME280;11310;51.528;21.204;2023-04-02T12:41:21;99743.94;;;6.16;100.00
22283;BME280;11310;51.528;21.204;2023-04-02T12:43:58;99743.03;;;6.17;100.00
22283;BME280;11310;51.528;21.204;2023-04-02T12:46:28;99742.94;;;6.20;100.00
22283;BME280;11310;51.528;21.204;2023-04-02T12:49:03;99744.94;;;6.12;100.00
22283;BME280;11310;51.528;21.204;2023-04-02T12:51:34;99752.78;;;6.10;100.00
22283;BME280;11310;51.528;21.204;2023-04-02T12:54:04;99751.28;;;6.03;100.00
22283;BME280;11310;51.528;21.204;2023-04-02T12:56:33;99752.22;;;6.01;100.00
22283;BME280;11310;51.528;21.204;2023-04-02T12:59:02;99758.59;;;5.92;100.00
22283;BME280;11310;51.528;21.204;2023-04-02T13:01:31;99758.78;;;5.86;100.00
22283;BME280;11310;51.528;21.204;2023-04-02T13:04:03;99761.41;;;5.86;100.00
22283;BME280;11310;51.528;21.204;2023-04-02T13:06:33;99757.63;;;5.95;100.00
22283;BME280;11310;51.528;21.204;2023-04-02T13:09:05;99756.69;;;5.97;100.00
22283;BME280;11310;51.528;21.204;2023-04-02T13:11:36;99764.47;;;5.99;100.00
22283;BME280;11310;51.528;21.204;2023-04-02T13:14:07;99763.63;;;5.97;100.00
22283;BME280;11310;51.528;21.204;2023-04-02T13:16:38;99759.53;;;5.90;100.00
22283;BME280;11310;51.528;21.204;2023-04-02T13:19:29;99764.00;;;5.86;100.00
22283;BME280;11310;51.528;21.204;2023-04-02T13:21:59;99763.13;;;5.86;100.00
22283;BME280;11310;51.528;21.204;2023-04-02T13:24:30;99780.50;;;5.85;100.00
22283;BME280;11310;51.528;21.204;2023-04-02T13:27:00;99785.56;;;5.90;100.00
22283;BME280;11310;51.528;21.204;2023-04-02T13:29:30;99792.38;;;5.94;100.00
22283;BME280;11310;51.528;21.204;2023-04-02T13:32:04;99787.97;;;5.96;100.00
22283;BME280;11310;51.528;21.204;2023-04-02T13:34:35;99795.13;;;5.89;100.00
22283;BME280;11310;51.528;21.204;2023-04-02T13:37:04;99793.50;;;5.85;100.00
22283;BME280;11310;51.528;21.204;2023-04-02T13:39:33;99795.28;;;5.85;100.00
22283;BME280;11310;51.528;21.204;2023-04-02T13:42:03;99797.91;;;5.83;100.00
22283;BME280;11310;51.528;21.204;2023-04-02T13:44:34;99797.13;;;5.80;100.00